createdAt,value
2022-10-19T00:02:12.493Z,95618.63
2022-10-19T00:04:39.071Z,95605.16
2022-10-19T00:07:05.724Z,95615.41
2022-10-19T00:09:32.496Z,95609.09
2022-10-19T00:11:59.287Z,95584.00
2022-10-19T00:14:25.867Z,95614.13
2022-10-19T00:16:53.249Z,95603.72
2022-10-19T00:19:24.479Z,95599.41
2022-10-19T00:21:52.452Z,95600.88
2022-10-19T00:24:19.591Z,95604.91
2022-10-19T00:26:47.838Z,95577.97
2022-10-19T00:29:16.973Z,95587.03
2022-10-19T00:31:44.061Z,95583.91
2022-10-19T00:34:10.985Z,95579.66
2022-10-19T00:36:39.741Z,95555.88
2022-10-19T00:39:10.501Z,95578.28
2022-10-19T00:41:39.187Z,95568.59
2022-10-19T00:44:27.472Z,95563.19
2022-10-19T00:46:57.252Z,95542.47
2022-10-19T00:49:27.179Z,95565.84
2022-10-19T00:51:58.197Z,95535.16
2022-10-19T00:54:25.617Z,95553.97
2022-10-19T00:56:55.137Z,95546.69
2022-10-19T00:59:25.115Z,95549.81
2022-10-19T01:01:53.617Z,95541.63
2022-10-19T01:04:22.174Z,95537.88
2022-10-19T01:06:49.073Z,95528.19
2022-10-19T01:09:15.983Z,95533.94
2022-10-19T01:12:01.200Z,95531.72
2022-10-19T01:14:59.120Z,95519.63
2022-10-19T01:17:59.560Z,95523.97
2022-10-19T01:20:32.366Z,95528.97
2022-10-19T01:23:23.484Z,95519.44
2022-10-19T01:25:56.873Z,95517.47
2022-10-19T01:28:51.830Z,95517.47
2022-10-19T01:31:35.717Z,95505.88
2022-10-19T01:34:11.325Z,95507.88
2022-10-19T01:36:52.944Z,95507.94
2022-10-19T01:39:31.234Z,95493.34
2022-10-19T01:42:03.586Z,95500.53
2022-10-19T01:44:40.038Z,95500.53
2022-10-19T01:47:12.261Z,95495.63
2022-10-19T01:49:42.087Z,95497.56
2022-10-19T01:52:12.665Z,95490.72
2022-10-19T01:54:46.926Z,95483.81
2022-10-19T01:57:21.553Z,95487.63
2022-10-19T01:59:49.498Z,95475.09
2022-10-19T02:02:18.099Z,95472.91
2022-10-19T02:04:47.108Z,95486.75
2022-10-19T02:07:14.216Z,95492.59
2022-10-19T02:09:40.799Z,95482.13
2022-10-19T02:12:11.353Z,95489.56
2022-10-19T02:14:44.357Z,95490.75
2022-10-19T02:17:17.056Z,95477.00
2022-10-19T02:19:43.791Z,95467.97
2022-10-19T02:22:12.235Z,95485.66
2022-10-19T02:24:38.929Z,95479.97
2022-10-19T02:27:07.858Z,95474.16
2022-10-19T02:29:36.827Z,95479.03
2022-10-19T02:32:04.473Z,95479.78
2022-10-19T02:34:31.701Z,95484.06
2022-10-19T02:36:58.664Z,95494.78
2022-10-19T02:39:25.752Z,95470.19
2022-10-19T02:42:11.503Z,95483.94
2022-10-19T02:44:53.197Z,95475.81
2022-10-19T02:47:30.252Z,95467.72
2022-10-19T02:49:56.888Z,95482.66
2022-10-19T02:52:23.485Z,95485.38
2022-10-19T02:54:50.081Z,95478.22
2022-10-19T02:57:21.299Z,95475.09
2022-10-19T02:59:47.914Z,95486.19
2022-10-19T03:02:16.407Z,95480.59
2022-10-19T03:04:44.713Z,95473.72
2022-10-19T03:07:16.094Z,95473.72
2022-10-19T03:09:43.839Z,95467.22
2022-10-19T03:12:12.293Z,95470.81
2022-10-19T03:14:39.314Z,95487.28
2022-10-19T03:17:06.021Z,95468.72
2022-10-19T03:19:34.317Z,95489.75
2022-10-19T03:22:01.123Z,95473.59
2022-10-19T03:24:27.985Z,95484.78
2022-10-19T03:26:54.692Z,95473.28
2022-10-19T03:29:21.323Z,95475.75
2022-10-19T03:31:48.089Z,95484.22
2022-10-19T03:34:14.710Z,95476.94
2022-10-19T03:36:42.481Z,95456.75
2022-10-19T03:39:12.468Z,95469.00
2022-10-19T03:41:39.503Z,95469.00
2022-10-19T03:44:07.182Z,95469.72
2022-10-19T03:46:35.767Z,95464.38
2022-10-19T03:49:03.405Z,95470.63
2022-10-19T03:51:31.445Z,95472.66
2022-10-19T03:54:01.383Z,95472.16
2022-10-19T03:56:29.950Z,95462.19
2022-10-19T03:58:58.921Z,95465.59
2022-10-19T04:01:31.651Z,95452.19
2022-10-19T04:04:01.037Z,95452.06
2022-10-19T04:06:30.495Z,95447.00
2022-10-19T04:08:58.296Z,95463.09
2022-10-19T04:11:27.823Z,95461.56
2022-10-19T04:13:56.147Z,95457.00
2022-10-19T04:16:24.555Z,95450.22
2022-10-19T04:18:51.675Z,95455.59
2022-10-19T04:21:33.095Z,95453.19
2022-10-19T04:24:14.201Z,95444.41
2022-10-19T04:26:55.152Z,95451.31
2022-10-19T04:29:26.456Z,95458.25
2022-10-19T04:31:56.287Z,95443.34
2022-10-19T04:34:23.192Z,95450.22
2022-10-19T04:36:50.167Z,95454.44
2022-10-19T04:39:16.913Z,95444.97
2022-10-19T04:41:43.585Z,95447.38
2022-10-19T04:44:10.182Z,95444.66
2022-10-19T04:46:37.608Z,95447.75
2022-10-19T04:49:06.227Z,95431.66
2022-10-19T04:51:32.952Z,95443.50
2022-10-19T04:54:00.069Z,95450.72
2022-10-19T04:56:27.551Z,95453.81
2022-10-19T04:58:56.580Z,95449.03
2022-10-19T05:01:24.241Z,95448.63
2022-10-19T05:03:58.172Z,95439.31
2022-10-19T05:06:26.367Z,95439.38
2022-10-19T05:08:53.627Z,95435.69
2022-10-19T05:11:20.924Z,95420.84
2022-10-19T05:13:48.124Z,95431.28
2022-10-19T05:16:18.261Z,95442.69
2022-10-19T05:18:53.267Z,95444.16
2022-10-19T05:21:21.855Z,95444.88
2022-10-19T05:23:52.312Z,95434.31
2022-10-19T05:26:21.792Z,95441.56
2022-10-19T05:28:49.920Z,95449.22
2022-10-19T05:31:20.175Z,95451.09
2022-10-19T05:33:47.396Z,95443.31
2022-10-19T05:36:15.813Z,95453.06
2022-10-19T05:38:44.059Z,95459.72
2022-10-19T05:41:11.551Z,95458.94
2022-10-19T05:43:39.322Z,95436.91
2022-10-19T05:46:08.633Z,95454.25
2022-10-19T05:48:35.963Z,95436.09
2022-10-19T05:51:05.357Z,95450.59
2022-10-19T05:53:33.375Z,95456.00
2022-10-19T05:56:00.039Z,95458.66
2022-10-19T05:58:27.036Z,95440.09
2022-10-19T06:00:58.597Z,95438.56
2022-10-19T06:03:26.052Z,95456.72
2022-10-19T06:05:54.091Z,95449.88
2022-10-19T06:08:22.208Z,95462.84
2022-10-19T06:10:49.710Z,95451.91
2022-10-19T06:13:18.486Z,95451.44
2022-10-19T06:15:45.191Z,95465.16
2022-10-19T06:18:13.096Z,95457.09
2022-10-19T06:20:42.004Z,95460.44
2022-10-19T06:23:09.348Z,95467.13
2022-10-19T06:25:36.863Z,95467.84
2022-10-19T06:28:04.160Z,95470.00
2022-10-19T06:30:30.793Z,95479.41
2022-10-19T06:32:59.019Z,95477.47
2022-10-19T06:35:25.898Z,95461.63
2022-10-19T06:37:52.614Z,95477.63
2022-10-19T06:40:19.382Z,95450.81
2022-10-19T06:42:46.242Z,95456.72
2022-10-19T06:45:12.945Z,95456.25
2022-10-19T06:50:14.352Z,95453.13
2022-10-19T06:52:41.407Z,95455.91
2022-10-19T06:55:08.722Z,95460.00
2022-10-19T06:57:35.875Z,95449.97
2022-10-19T07:00:04.031Z,95455.13
2022-10-19T07:02:30.811Z,95448.16
2022-10-19T07:04:57.442Z,95437.75
2022-10-19T07:07:24.350Z,95438.13
2022-10-19T07:09:51.129Z,95441.44
2022-10-19T07:12:17.736Z,95454.56
2022-10-19T07:14:44.364Z,95429.81
2022-10-19T07:17:12.289Z,95441.16
2022-10-19T07:19:39.018Z,95448.72
2022-10-19T07:22:06.936Z,95440.94
2022-10-19T07:24:33.526Z,95427.84
2022-10-19T07:27:00.213Z,95438.38
2022-10-19T07:29:26.963Z,95438.03
2022-10-19T07:31:53.715Z,95408.63
2022-10-19T07:34:23.120Z,95413.50
2022-10-19T07:36:52.758Z,95424.13
2022-10-19T07:39:19.529Z,95419.94
2022-10-19T07:41:46.691Z,95416.75
2022-10-19T07:44:15.891Z,95401.16
2022-10-19T07:46:43.107Z,95409.72
2022-10-19T07:49:20.007Z,95397.47
2022-10-19T07:51:47.563Z,95396.28
2022-10-19T07:54:14.292Z,95400.25
2022-10-19T07:56:41.022Z,95401.28
2022-10-19T07:59:07.761Z,95398.06
2022-10-19T08:01:41.686Z,95393.78
2022-10-19T08:06:55.383Z,95369.69
2022-10-19T08:12:13.800Z,95385.97
2022-10-19T08:14:41.451Z,95386.13
2022-10-19T08:17:12.054Z,95392.97
2022-10-19T08:19:43.343Z,95387.97
2022-10-19T08:22:10.657Z,95388.78
2022-10-19T08:24:37.503Z,95384.78
2022-10-19T08:27:04.179Z,95355.66
2022-10-19T08:29:31.697Z,95371.16
2022-10-19T08:31:59.550Z,95377.94
2022-10-19T08:34:26.752Z,95372.13
2022-10-19T08:36:53.556Z,95362.47
2022-10-19T08:39:20.143Z,95367.50
2022-10-19T08:42:04.223Z,95353.72
2022-10-19T08:44:48.874Z,95358.34
2022-10-19T08:47:26.653Z,95351.38
2022-10-19T08:49:54.011Z,95345.19
2022-10-19T08:52:34.387Z,95350.72
2022-10-19T08:55:15.112Z,95357.78
2022-10-19T08:58:06.072Z,95348.28
2022-10-19T09:00:42.756Z,95341.59
2022-10-19T09:03:43.878Z,95339.66
2022-10-19T09:06:29.480Z,95331.50
2022-10-19T09:08:57.965Z,95316.06
2022-10-19T09:11:32.842Z,95333.13
2022-10-19T09:14:15.042Z,95317.13
2022-10-19T09:16:42.142Z,95327.72
2022-10-19T09:19:23.047Z,95325.88
2022-10-19T09:22:01.282Z,95326.84
2022-10-19T09:24:51.927Z,95315.81
2022-10-19T09:27:29.921Z,95330.84
2022-10-19T09:30:04.874Z,95328.53
2022-10-19T09:32:38.101Z,95322.78
2022-10-19T09:35:16.014Z,95325.69
2022-10-19T09:37:47.097Z,95324.19
2022-10-19T09:40:25.069Z,95327.06
2022-10-19T09:42:57.198Z,95316.75
2022-10-19T09:45:36.544Z,95326.13
2022-10-19T09:48:13.422Z,95334.63
2022-10-19T09:50:43.636Z,95321.59
2022-10-19T09:53:19.688Z,95315.38
2022-10-19T09:55:51.632Z,95328.19
2022-10-19T09:58:20.226Z,95304.13
2022-10-19T10:00:54.879Z,95300.38
2022-10-19T10:03:35.477Z,95314.66
2022-10-19T10:06:06.614Z,95310.97
2022-10-19T10:08:45.153Z,95297.66
2022-10-19T10:11:13.038Z,95293.41
2022-10-19T10:13:42.829Z,95298.19
2022-10-19T10:16:14.138Z,95292.41
2022-10-19T10:18:49.883Z,95289.16
2022-10-19T10:21:34.863Z,95283.84
2022-10-19T10:24:06.586Z,95269.56
2022-10-19T10:26:42.584Z,95270.81
2022-10-19T10:29:28.793Z,95269.59
2022-10-19T10:32:00.428Z,95253.28
2022-10-19T10:34:51.903Z,95267.06
2022-10-19T10:37:24.898Z,95255.78
2022-10-19T10:39:59.234Z,95254.25
2022-10-19T10:42:35.198Z,95256.72
2022-10-19T10:45:02.982Z,95244.13
2022-10-19T10:47:30.988Z,95237.34
2022-10-19T10:49:59.065Z,95241.31
2022-10-19T10:52:29.113Z,95233.00
2022-10-19T10:55:01.761Z,95237.81
2022-10-19T10:57:53.029Z,95211.94
2022-10-19T11:00:22.442Z,95221.72
2022-10-19T11:03:12.149Z,95205.69
2022-10-19T11:05:46.774Z,95218.28
2022-10-19T11:08:20.989Z,95216.47
2022-10-19T11:11:00.693Z,95207.44
2022-10-19T11:13:39.321Z,95205.69
2022-10-19T11:16:24.206Z,95211.66
2022-10-19T11:18:57.212Z,95203.41
2022-10-19T11:21:48.683Z,95203.66
2022-10-19T11:24:21.468Z,95192.59
2022-10-19T11:27:04.702Z,95194.47
2022-10-19T11:30:04.583Z,95193.88
2022-10-19T11:32:46.064Z,95193.41
2022-10-19T11:35:15.534Z,95189.06
2022-10-19T11:38:18.143Z,95179.50
2022-10-19T11:41:17.835Z,95163.03
2022-10-19T11:43:54.724Z,95164.72
2022-10-19T11:46:35.202Z,95173.13
2022-10-19T11:49:25.191Z,95161.66
2022-10-19T11:52:05.346Z,95147.16
2022-10-19T11:54:59.542Z,95160.44
2022-10-19T11:57:31.179Z,95148.06
2022-10-19T12:00:37.684Z,95134.69
2022-10-19T12:03:25.715Z,95133.91
2022-10-19T12:06:22.289Z,95139.72
2022-10-19T12:08:55.307Z,95148.53
2022-10-19T12:12:04.330Z,95145.31
2022-10-19T12:14:34.622Z,95146.34
2022-10-19T12:17:08.081Z,95129.63
2022-10-19T12:19:44.153Z,95129.84
2022-10-19T12:22:24.259Z,95144.31
2022-10-19T12:24:53.289Z,95145.97
2022-10-19T12:27:30.539Z,95125.69
2022-10-19T12:30:03.747Z,95141.59
2022-10-19T12:32:37.431Z,95119.94
2022-10-19T12:35:27.798Z,95119.56
2022-10-19T12:38:05.550Z,95128.19
2022-10-19T12:40:32.312Z,95109.63
2022-10-19T12:43:18.773Z,95094.91
2022-10-19T12:45:54.487Z,95112.69
2022-10-19T12:48:24.826Z,95118.31
2022-10-19T12:50:53.800Z,95115.31
2022-10-19T12:56:12.281Z,95114.50
2022-10-19T12:58:46.570Z,95116.13
2022-10-19T13:01:22.339Z,95111.84
2022-10-19T13:03:54.137Z,95110.22
2022-10-19T13:06:23.426Z,95112.56
2022-10-19T13:08:53.020Z,95110.75
2022-10-19T13:11:21.042Z,95088.44
2022-10-19T13:14:01.914Z,95102.28
2022-10-19T13:16:28.509Z,95101.59
2022-10-19T13:19:13.420Z,95099.16
2022-10-19T13:21:52.375Z,95095.25
2022-10-19T13:24:25.149Z,95107.22
2022-10-19T13:27:04.278Z,95101.16
2022-10-19T13:29:44.721Z,95104.00
2022-10-19T13:32:39.376Z,95102.59
2022-10-19T13:35:25.649Z,95101.06
2022-10-19T13:38:12.030Z,95101.06
2022-10-19T13:40:59.690Z,95085.44
2022-10-19T13:43:30.166Z,95105.63
2022-10-19T13:46:29.974Z,95088.25
2022-10-19T13:48:56.616Z,95093.50
2022-10-19T13:51:57.401Z,95091.34
2022-10-19T13:54:42.960Z,95090.44
2022-10-19T13:57:34.829Z,95068.72
2022-10-19T14:00:13.856Z,95084.06
2022-10-19T14:03:11.688Z,95050.38
2022-10-19T14:05:57.217Z,95074.38
2022-10-19T14:08:47.824Z,95082.91
2022-10-19T14:11:21.774Z,95082.69
2022-10-19T14:14:10.408Z,95069.06
2022-10-19T14:17:04.055Z,95078.50
2022-10-19T14:19:42.449Z,95076.63
2022-10-19T14:22:26.616Z,95072.66
2022-10-19T14:25:01.800Z,95072.00
2022-10-19T14:27:30.096Z,95057.47
2022-10-19T14:29:57.153Z,95069.81
2022-10-19T14:32:27.342Z,95081.03
2022-10-19T14:37:31.719Z,95080.22
2022-10-19T14:40:26.638Z,95078.84
2022-10-19T14:42:56.779Z,95085.63
2022-10-19T14:45:29.095Z,95089.16
2022-10-19T14:47:57.276Z,95083.28
2022-10-19T14:50:29.753Z,95089.34
2022-10-19T14:53:30.336Z,95093.41
2022-10-19T14:56:02.469Z,95096.50
2022-10-19T14:58:36.025Z,95106.78
2022-10-19T15:01:02.990Z,95099.50
2022-10-19T15:03:30.848Z,95101.88
2022-10-19T15:06:06.397Z,95101.72
2022-10-19T15:08:43.760Z,95113.03
2022-10-19T15:11:33.331Z,95106.63
2022-10-19T15:14:06.383Z,95104.16
2022-10-19T15:16:39.080Z,95112.16
2022-10-19T15:19:14.561Z,95124.19
2022-10-19T15:21:41.265Z,95120.94
2022-10-19T15:24:22.985Z,95130.75
2022-10-19T15:27:06.508Z,95130.22
2022-10-19T15:29:35.225Z,95127.94
2022-10-19T15:32:16.809Z,95136.22
2022-10-19T15:34:45.128Z,95133.16
2022-10-19T15:37:20.279Z,95142.13
2022-10-19T15:39:47.657Z,95124.53
2022-10-19T15:42:29.230Z,95148.50
2022-10-19T15:44:55.954Z,95149.44
2022-10-19T15:47:24.774Z,95144.78
2022-10-19T15:49:55.911Z,95165.44
2022-10-19T15:52:29.679Z,95156.88
2022-10-19T15:54:59.326Z,95161.22
2022-10-19T15:57:34.846Z,95170.59
2022-10-19T16:00:22.242Z,95167.50
2022-10-19T16:02:48.981Z,95154.84
2022-10-19T16:05:15.695Z,95169.91
2022-10-19T16:07:42.678Z,95159.34
2022-10-19T16:10:16.807Z,95168.56
2022-10-19T16:12:43.543Z,95184.06
2022-10-19T16:15:22.327Z,95192.19
2022-10-19T16:17:52.449Z,95194.34
2022-10-19T16:20:19.433Z,95198.97
2022-10-19T16:22:47.689Z,95188.19
2022-10-19T16:25:15.166Z,95184.03
2022-10-19T16:27:42.182Z,95192.00
2022-10-19T16:30:09.482Z,95205.78
2022-10-19T16:32:36.328Z,95208.53
2022-10-19T16:35:03.241Z,95222.94
2022-10-19T16:37:30.042Z,95220.63
2022-10-19T16:39:56.663Z,95226.84
2022-10-19T16:42:25.634Z,95210.25
2022-10-19T16:44:55.579Z,95221.63
2022-10-19T16:47:22.365Z,95237.38
2022-10-19T16:49:56.964Z,95231.00
2022-10-19T16:52:23.661Z,95235.38
2022-10-19T16:54:50.519Z,95239.28
2022-10-19T16:57:17.145Z,95236.38
2022-10-19T16:59:43.885Z,95240.28
2022-10-19T17:02:11.588Z,95245.56
2022-10-19T17:04:39.065Z,95247.38
2022-10-19T17:07:05.948Z,95256.47
2022-10-19T17:09:52.260Z,95258.28
2022-10-19T17:12:19.449Z,95260.81
2022-10-19T17:14:46.147Z,95260.88
2022-10-19T17:17:13.165Z,95261.84
2022-10-19T17:19:39.955Z,95250.75
2022-10-19T17:22:09.519Z,95266.81
2022-10-19T17:24:37.463Z,95260.88
2022-10-19T17:27:04.178Z,95260.69
2022-10-19T17:29:30.937Z,95270.22
2022-10-19T17:31:58.290Z,95273.25
2022-10-19T17:34:25.283Z,95272.41
2022-10-19T17:36:51.933Z,95261.28
2022-10-19T17:39:25.553Z,95271.19
2022-10-19T17:42:01.648Z,95271.50
2022-10-19T17:44:30.183Z,95273.00
2022-10-19T17:46:56.806Z,95271.66
2022-10-19T17:49:23.410Z,95276.88
2022-10-19T17:51:52.769Z,95266.75
2022-10-19T17:54:19.487Z,95235.97
2022-10-19T17:56:46.172Z,95269.22
2022-10-19T17:59:13.608Z,95264.75
2022-10-19T18:01:40.673Z,95267.00
2022-10-19T18:04:07.351Z,95273.97
2022-10-19T18:06:36.609Z,95265.25
2022-10-19T18:09:06.144Z,95280.28
2022-10-19T18:11:38.670Z,95275.56
2022-10-19T18:14:08.292Z,95252.50
2022-10-19T18:16:46.996Z,95266.91
2022-10-19T18:19:16.287Z,95265.97
2022-10-19T18:21:45.907Z,95267.84
2022-10-19T18:24:21.975Z,95271.25
2022-10-19T18:26:50.346Z,95269.25
2022-10-19T18:29:21.068Z,95273.81
2022-10-19T18:31:55.205Z,95262.47
2022-10-19T18:34:24.612Z,95262.81
2022-10-19T18:36:52.032Z,95277.28
2022-10-19T18:39:19.198Z,95276.78
2022-10-19T18:41:46.192Z,95277.81
2022-10-19T18:44:13.750Z,95273.94
2022-10-19T18:46:41.294Z,95288.84
2022-10-19T18:49:08.417Z,95278.75
2022-10-19T18:51:35.737Z,95268.97
2022-10-19T18:54:02.709Z,95294.28
2022-10-19T18:56:29.913Z,95253.66
2022-10-19T18:58:57.155Z,95237.25
2022-10-19T19:01:26.969Z,95233.66
2022-10-19T19:03:56.899Z,95291.81
2022-10-19T19:06:29.564Z,95265.41
2022-10-19T19:09:01.335Z,95271.56
2022-10-19T19:11:36.776Z,95322.44
2022-10-19T19:14:15.842Z,95319.00
2022-10-19T19:16:44.037Z,95315.63
2022-10-19T19:19:13.261Z,95325.53
2022-10-19T19:21:44.104Z,95311.53
2022-10-19T19:24:14.583Z,95331.50
2022-10-19T19:26:43.445Z,95313.97
2022-10-19T19:29:10.512Z,95311.84
2022-10-19T19:31:37.493Z,95325.75
2022-10-19T19:34:06.333Z,95328.75
2022-10-19T19:36:33.911Z,95335.44
2022-10-19T19:39:01.412Z,95318.44
2022-10-19T19:41:32.554Z,95342.03
2022-10-19T19:43:59.702Z,95356.00
2022-10-19T19:46:27.301Z,95361.13
2022-10-19T19:49:02.881Z,95367.63
2022-10-19T19:51:31.659Z,95363.63
2022-10-19T19:53:59.024Z,95347.88
2022-10-19T19:56:26.170Z,95337.28
2022-10-19T19:58:58.460Z,95348.38
2022-10-19T20:01:26.817Z,95358.81
2022-10-19T20:03:53.800Z,95368.38
2022-10-19T20:06:24.972Z,95365.72
2022-10-19T20:08:52.671Z,95371.19
2022-10-19T20:11:19.533Z,95366.69
2022-10-19T20:13:46.446Z,95362.44
2022-10-19T20:16:15.807Z,95358.59
2022-10-19T20:18:45.658Z,95367.19
2022-10-19T20:21:12.958Z,95363.41
2022-10-19T20:23:39.898Z,95340.47
2022-10-19T20:26:06.715Z,95376.47
2022-10-19T20:28:33.502Z,95357.84
2022-10-19T20:31:05.295Z,95367.84
2022-10-19T20:33:34.163Z,95361.13
2022-10-19T20:36:10.895Z,95379.34
2022-10-19T20:38:38.678Z,95374.34
2022-10-19T20:41:09.790Z,95394.88
2022-10-19T20:43:37.514Z,95380.94
2022-10-19T20:46:17.782Z,95387.63
2022-10-19T20:48:45.367Z,95376.72
2022-10-19T20:51:32.118Z,95389.22
2022-10-19T20:54:01.687Z,95388.34
2022-10-19T20:56:31.791Z,95389.72
2022-10-19T21:01:30.176Z,95381.13
2022-10-19T21:03:59.012Z,95371.31
2022-10-19T21:06:27.014Z,95389.28
2022-10-19T21:08:54.551Z,95387.72
2022-10-19T21:11:24.597Z,95385.59
2022-10-19T21:13:56.368Z,95389.03
2022-10-19T21:16:27.527Z,95391.00
2022-10-19T21:18:54.831Z,95385.25
2022-10-19T21:21:24.935Z,95388.16
2022-10-19T21:23:55.427Z,95391.00
2022-10-19T21:26:25.250Z,95384.38
2022-10-19T21:28:55.139Z,95384.19
2022-10-19T21:31:23.652Z,95367.38
2022-10-19T21:33:51.775Z,95373.84
2022-10-19T21:36:20.137Z,95399.50
2022-10-19T21:38:47.626Z,95393.09
2022-10-19T21:41:16.473Z,95398.94
2022-10-19T21:43:43.636Z,95382.72
2022-10-19T21:46:16.113Z,95398.53
2022-10-19T21:48:43.758Z,95384.88
2022-10-19T21:51:36.303Z,95388.34
2022-10-19T21:54:08.075Z,95390.03
2022-10-19T21:56:34.857Z,95396.81
2022-10-19T21:59:01.469Z,95372.03
2022-10-19T22:01:29.942Z,95383.84
2022-10-19T22:04:01.741Z,95378.88
2022-10-19T22:06:30.571Z,95386.72
2022-10-19T22:08:58.178Z,95411.44
2022-10-19T22:11:25.439Z,95402.63
2022-10-19T22:13:57.019Z,95395.78
2022-10-19T22:16:24.778Z,95395.19
2022-10-19T22:18:52.588Z,95404.31
2022-10-19T22:21:26.100Z,95392.38
2022-10-19T22:24:00.988Z,95398.56
2022-10-19T22:26:33.645Z,95357.81
2022-10-19T22:29:01.421Z,95396.53
2022-10-19T22:31:29.690Z,95402.16
2022-10-19T22:33:56.362Z,95415.34
2022-10-19T22:36:22.966Z,95380.19
2022-10-19T22:38:49.564Z,95401.34
2022-10-19T22:41:16.931Z,95395.03
2022-10-19T22:43:43.510Z,95396.41
2022-10-19T22:46:10.225Z,95391.94
2022-10-19T22:48:37.096Z,95401.03
2022-10-19T22:51:03.984Z,95415.59
2022-10-19T22:53:30.776Z,95405.41
2022-10-19T22:55:57.586Z,95408.69
2022-10-19T22:58:24.186Z,95418.28
2022-10-19T23:01:26.695Z,95399.16
2022-10-19T23:03:54.538Z,95399.72
2022-10-19T23:06:21.995Z,95414.78
2022-10-19T23:08:49.373Z,95399.72
2022-10-19T23:11:16.806Z,95422.31
2022-10-19T23:13:43.903Z,95418.84
2022-10-19T23:16:10.681Z,95415.75
2022-10-19T23:18:39.679Z,95416.56
2022-10-19T23:21:10.699Z,95420.81
2022-10-19T23:23:37.422Z,95398.66
2022-10-19T23:26:05.642Z,95415.50
2022-10-19T23:28:34.389Z,95416.88
2022-10-19T23:31:30.275Z,95434.91
2022-10-19T23:33:56.970Z,95418.56
2022-10-19T23:36:27.045Z,95438.59
2022-10-19T23:38:54.936Z,95438.75
2022-10-19T23:41:22.817Z,95438.34
2022-10-19T23:43:49.667Z,95448.41
2022-10-19T23:46:16.730Z,95437.19
2022-10-19T23:48:43.344Z,95441.19
2022-10-19T23:51:12.888Z,95449.69
2022-10-19T23:53:41.719Z,95449.59
2022-10-19T23:56:27.854Z,95459.72
2022-10-19T23:58:55.087Z,95460.47
